PDA5512 UKBB-UKWW
Flight info
| Callsign | PDA5512 |
|---|---|
| Flight time | 0h 30m |
| Altitude | 20000 |
| Route | SLV Q545 POGER |
| Aircraft | B738/M-SDE2E3FGHIRWXY/LB1 |
Departure
| Time | 2026-05-04 11:27 |
|---|---|
| Airport | Boryspil International Airport (UKBB) |
Arrival
| Time | 2026-05-04 11:58 |
|---|---|
| Airport | Vinnytsia/Gavyryshivka International Airport (UKWW) |
| Time | Latitude | Longitude | Altitude | Speed | Heading |
|---|---|---|---|---|---|
| 2026-05-04 11:05 | 50.33563 | 30.89864 | 426 ft | 0 kts | 2° |
| 2026-05-04 11:19 | 50.33564 | 30.89864 | 426 ft | 0 kts | 2° |
| 2026-05-04 11:19 | 50.33568 | 30.89864 | 426 ft | 1 kts | 2° |
| 2026-05-04 11:19 | 50.33586 | 30.89870 | 426 ft | 4 kts | 29° |
| 2026-05-04 11:20 | 50.33600 | 30.89925 | 426 ft | 7 kts | 88° |
| 2026-05-04 11:20 | 50.33598 | 30.90021 | 426 ft | 10 kts | 92° |
| 2026-05-04 11:20 | 50.33619 | 30.90133 | 426 ft | 12 kts | 26° |
| 2026-05-04 11:20 | 50.33712 | 30.90147 | 426 ft | 14 kts | 2° |
| 2026-05-04 11:22 | 50.34534 | 30.90207 | 426 ft | 16 kts | 2° |
| 2026-05-04 11:22 | 50.34648 | 30.90216 | 426 ft | 16 kts | 2° |
| 2026-05-04 11:23 | 50.34764 | 30.90225 | 426 ft | 16 kts | 2° |
| 2026-05-04 11:23 | 50.34878 | 30.90233 | 426 ft | 15 kts | 3° |
| 2026-05-04 11:24 | 50.35194 | 30.90465 | 426 ft | 15 kts | 153° |
| 2026-05-04 11:25 | 50.35099 | 30.90527 | 426 ft | 14 kts | 164° |
| 2026-05-04 11:25 | 50.34999 | 30.90559 | 426 ft | 15 kts | 173° |
| 2026-05-04 11:25 | 50.34870 | 30.90556 | 426 ft | 29 kts | 182° |
| 2026-05-04 11:26 | 50.33287 | 30.90432 | 692 ft | 170 kts | 187° |
| 2026-05-04 11:27 | 50.22172 | 30.90189 | 6575 ft | 280 kts | 184° |
| 2026-05-04 11:28 | 50.20250 | 30.90053 | 7572 ft | 287 kts | 184° |
| 2026-05-04 11:28 | 50.18260 | 30.89936 | 8680 ft | 289 kts | 184° |
| 2026-05-04 11:28 | 50.16259 | 30.89764 | 9702 ft | 294 kts | 184° |
| 2026-05-04 11:28 | 50.14184 | 30.89574 | 10555 ft | 305 kts | 184° |
| 2026-05-04 11:29 | 50.11996 | 30.89383 | 11047 ft | 328 kts | 184° |
| 2026-05-04 11:29 | 50.09702 | 30.89171 | 11905 ft | 337 kts | 184° |
| 2026-05-04 11:29 | 50.07373 | 30.88455 | 12808 ft | 343 kts | 203° |
| 2026-05-04 11:29 | 50.05455 | 30.86316 | 13703 ft | 346 kts | 230° |
| 2026-05-04 11:31 | 49.99379 | 30.61854 | 19628 ft | 373 kts | 245° |
| 2026-05-04 11:33 | 49.91512 | 30.36245 | 19886 ft | 374 kts | 247° |
| 2026-05-04 11:33 | 49.90395 | 30.32568 | 19890 ft | 374 kts | 246° |
| 2026-05-04 11:33 | 49.89285 | 30.28915 | 19891 ft | 374 kts | 246° |
| 2026-05-04 11:34 | 49.88182 | 30.25284 | 19888 ft | 374 kts | 246° |
| 2026-05-04 11:34 | 49.87067 | 30.21618 | 19885 ft | 374 kts | 246° |
| 2026-05-04 11:34 | 49.85966 | 30.18004 | 19885 ft | 374 kts | 246° |
| 2026-05-04 11:34 | 49.84849 | 30.14340 | 19885 ft | 374 kts | 246° |
| 2026-05-04 11:35 | 49.83739 | 30.10701 | 19885 ft | 374 kts | 246° |
| 2026-05-04 11:35 | 49.82618 | 30.07034 | 19885 ft | 374 kts | 246° |
| 2026-05-04 11:35 | 49.81500 | 30.03380 | 19885 ft | 374 kts | 246° |
| 2026-05-04 11:35 | 49.80399 | 29.99790 | 19885 ft | 374 kts | 246° |
| 2026-05-04 11:36 | 49.79280 | 29.96143 | 19989 ft | 372 kts | 246° |
| 2026-05-04 11:36 | 49.78167 | 29.92524 | 20011 ft | 374 kts | 246° |
| 2026-05-04 11:36 | 49.77054 | 29.88904 | 20024 ft | 374 kts | 246° |
| 2026-05-04 11:36 | 49.75936 | 29.85281 | 20038 ft | 373 kts | 246° |
| 2026-05-04 11:37 | 49.74815 | 29.81649 | 20052 ft | 372 kts | 246° |
| 2026-05-04 11:37 | 49.73701 | 29.78046 | 20065 ft | 372 kts | 246° |
| 2026-05-04 11:37 | 49.72601 | 29.74492 | 20074 ft | 372 kts | 246° |
| 2026-05-04 11:37 | 49.71476 | 29.70867 | 20074 ft | 372 kts | 246° |
| 2026-05-04 11:38 | 49.70366 | 29.67293 | 19995 ft | 368 kts | 246° |
| 2026-05-04 11:38 | 49.69264 | 29.63751 | 19571 ft | 365 kts | 246° |
| 2026-05-04 11:38 | 49.68162 | 29.60211 | 19050 ft | 364 kts | 246° |
| 2026-05-04 11:38 | 49.67072 | 29.56715 | 18685 ft | 363 kts | 246° |
| 2026-05-04 11:39 | 49.65983 | 29.53229 | 18406 ft | 358 kts | 246° |
| 2026-05-04 11:39 | 49.64911 | 29.49803 | 18083 ft | 357 kts | 246° |
| 2026-05-04 11:40 | 49.58396 | 29.29068 | 15048 ft | 362 kts | 245° |
| 2026-05-04 11:41 | 49.57295 | 29.25584 | 14448 ft | 362 kts | 245° |
| 2026-05-04 11:41 | 49.56153 | 29.22094 | 13842 ft | 363 kts | 242° |
| 2026-05-04 11:41 | 49.54847 | 29.18838 | 13237 ft | 358 kts | 236° |
| 2026-05-04 11:41 | 49.53285 | 29.15888 | 12688 ft | 361 kts | 227° |
| 2026-05-04 11:42 | 49.51526 | 29.13164 | 12056 ft | 362 kts | 225° |
| 2026-05-04 11:42 | 49.49740 | 29.10428 | 11344 ft | 363 kts | 225° |
| 2026-05-04 11:42 | 49.47970 | 29.07691 | 10481 ft | 357 kts | 225° |
| 2026-05-04 11:42 | 49.46281 | 29.05105 | 10300 ft | 327 kts | 225° |
| 2026-05-04 11:43 | 49.44738 | 29.02753 | 10123 ft | 303 kts | 225° |
| 2026-05-04 11:43 | 49.43293 | 29.00555 | 9793 ft | 288 kts | 225° |
| 2026-05-04 11:43 | 49.41904 | 28.98446 | 9431 ft | 275 kts | 225° |
| 2026-05-04 11:43 | 49.40561 | 28.96411 | 9094 ft | 271 kts | 225° |
| 2026-05-04 11:44 | 49.39207 | 28.94361 | 8743 ft | 277 kts | 225° |
| 2026-05-04 11:44 | 49.37839 | 28.92296 | 8392 ft | 276 kts | 225° |
| 2026-05-04 11:44 | 49.36473 | 28.90225 | 8038 ft | 271 kts | 224° |
| 2026-05-04 11:44 | 49.35154 | 28.88239 | 7701 ft | 263 kts | 224° |
| 2026-05-04 11:45 | 49.33876 | 28.86318 | 7374 ft | 255 kts | 224° |
| 2026-05-04 11:45 | 49.32575 | 28.84361 | 7046 ft | 266 kts | 223° |
| 2026-05-04 11:45 | 49.31277 | 28.82409 | 6715 ft | 258 kts | 224° |
| 2026-05-04 11:45 | 49.30033 | 28.80536 | 6496 ft | 246 kts | 223° |
| 2026-05-04 11:46 | 49.28860 | 28.78746 | 6389 ft | 230 kts | 224° |
| 2026-05-04 11:46 | 49.27760 | 28.77024 | 6172 ft | 220 kts | 224° |
| 2026-05-04 11:46 | 49.26703 | 28.75377 | 5917 ft | 214 kts | 224° |
| 2026-05-04 11:46 | 49.25661 | 28.73759 | 5496 ft | 215 kts | 224° |
| 2026-05-04 11:47 | 49.24607 | 28.72115 | 5070 ft | 217 kts | 224° |
| 2026-05-04 11:47 | 49.23544 | 28.70458 | 4648 ft | 219 kts | 224° |
| 2026-05-04 11:47 | 49.22485 | 28.68819 | 4328 ft | 215 kts | 224° |
| 2026-05-04 11:47 | 49.21462 | 28.67221 | 4184 ft | 202 kts | 224° |
| 2026-05-04 11:48 | 49.20488 | 28.65710 | 3913 ft | 198 kts | 221° |
| 2026-05-04 11:48 | 49.19337 | 28.64715 | 3571 ft | 193 kts | 188° |
| 2026-05-04 11:48 | 49.18028 | 28.64666 | 3336 ft | 184 kts | 176° |
| 2026-05-04 11:48 | 49.16744 | 28.64714 | 3001 ft | 183 kts | 177° |
| 2026-05-04 11:49 | 49.15470 | 28.64758 | 2981 ft | 187 kts | 178° |
| 2026-05-04 11:49 | 49.14109 | 28.64812 | 2969 ft | 199 kts | 177° |
| 2026-05-04 11:49 | 49.12759 | 28.64863 | 2978 ft | 188 kts | 177° |
| 2026-05-04 11:49 | 49.11440 | 28.64909 | 2973 ft | 190 kts | 177° |
| 2026-05-04 11:50 | 49.10100 | 28.64963 | 2980 ft | 199 kts | 177° |
| 2026-05-04 11:50 | 49.08749 | 28.65067 | 2971 ft | 188 kts | 169° |
| 2026-05-04 11:50 | 49.07556 | 28.65872 | 2983 ft | 194 kts | 143° |
| 2026-05-04 11:50 | 49.06579 | 28.67180 | 2971 ft | 183 kts | 130° |
| 2026-05-04 11:51 | 49.05820 | 28.68755 | 2979 ft | 183 kts | 118° |
| 2026-05-04 11:51 | 49.05333 | 28.70567 | 2982 ft | 185 kts | 106° |
| 2026-05-04 11:51 | 49.05115 | 28.72497 | 2984 ft | 185 kts | 95° |
| 2026-05-04 11:51 | 49.05136 | 28.74439 | 2984 ft | 180 kts | 83° |
| 2026-05-04 11:52 | 49.05363 | 28.76260 | 2989 ft | 173 kts | 74° |
| 2026-05-04 11:52 | 49.05787 | 28.77988 | 2990 ft | 175 kts | 63° |
| 2026-05-04 11:52 | 49.06462 | 28.79530 | 2994 ft | 177 kts | 52° |
| 2026-05-04 11:52 | 49.07320 | 28.80872 | 3004 ft | 181 kts | 41° |
| 2026-05-04 11:53 | 49.08414 | 28.81927 | 2981 ft | 183 kts | 27° |
| 2026-05-04 11:53 | 49.09522 | 28.82654 | 2992 ft | 171 kts | 18° |
| 2026-05-04 11:53 | 49.10737 | 28.82674 | 2992 ft | 178 kts | 345° |
| 2026-05-04 11:53 | 49.11779 | 28.81697 | 2996 ft | 177 kts | 314° |
| 2026-05-04 11:55 | 49.16744 | 28.71586 | 2776 ft | 158 kts | 320° |
| 2026-05-04 11:55 | 49.17519 | 28.70521 | 2583 ft | 147 kts | 320° |
| 2026-05-04 11:56 | 49.18307 | 28.69450 | 2336 ft | 146 kts | 319° |
| 2026-05-04 11:56 | 49.19046 | 28.68437 | 2153 ft | 144 kts | 321° |
| 2026-05-04 11:56 | 49.19839 | 28.67359 | 1975 ft | 152 kts | 320° |
| 2026-05-04 11:56 | 49.20574 | 28.66360 | 1728 ft | 138 kts | 319° |
| 2026-05-04 11:57 | 49.21319 | 28.65354 | 1616 ft | 145 kts | 321° |
| 2026-05-04 11:57 | 49.22071 | 28.64336 | 1380 ft | 138 kts | 323° |
| 2026-05-04 11:57 | 49.22793 | 28.63374 | 1212 ft | 141 kts | 320° |
| 2026-05-04 11:57 | 49.23552 | 28.62332 | 1021 ft | 142 kts | 320° |
| 2026-05-04 11:58 | 49.24216 | 28.61437 | 983 ft | 110 kts | 318° |
| 2026-05-04 11:58 | 49.24686 | 28.60790 | 982 ft | 70 kts | 319° |
| 2026-05-04 11:58 | 49.24931 | 28.60455 | 982 ft | 21 kts | 319° |
| 2026-05-04 11:58 | 49.25029 | 28.60330 | 982 ft | 14 kts | 332° |
| 2026-05-04 11:59 | 49.25043 | 28.60277 | 982 ft | 2 kts | 180° |
| 2026-05-04 11:59 | 49.25022 | 28.60300 | 982 ft | 5 kts | 140° |
| 2026-05-04 11:59 | 49.24979 | 28.60357 | 982 ft | 10 kts | 136° |
| 2026-05-04 11:59 | 49.24917 | 28.60456 | 982 ft | 14 kts | 133° |
| 2026-05-04 12:00 | 49.24840 | 28.60572 | 982 ft | 15 kts | 138° |
| 2026-05-04 12:00 | 49.24755 | 28.60691 | 982 ft | 17 kts | 139° |
| 2026-05-04 12:00 | 49.24661 | 28.60818 | 982 ft | 19 kts | 139° |
| 2026-05-04 12:00 | 49.24553 | 28.60971 | 982 ft | 17 kts | 139° |
| 2026-05-04 12:01 | 49.24464 | 28.60997 | 982 ft | 15 kts | 219° |
| 2026-05-04 12:01 | 49.24386 | 28.60870 | 982 ft | 13 kts | 228° |
| 2026-05-04 12:02 | 49.24339 | 28.60694 | 982 ft | 0 kts | 229° |